Flight Track Log - Related Links

Times and Time Zones

All times are in EDT time to prevent confusion due to time zone crossing. See the SWA260 flight status page for this flight to view local times or setup timezone preferences in your user account.


Time Position Orientation Groundspeed Altitude Reporting Facility
EDT Latitude Longitude Course Direction KTS MPH feet Rate Location/Type
Mon 02:53:48 PM 29.5983 -98.3947 45° Northeast 227 261 4,100  Level Houston Center
Mon 02:54:06 PM 29.6056 -98.3742 68° East 225 259 5,000 3,049 Climbing Houston Center
Mon 02:54:49 PM 29.6314 -98.3233 60° Northeast 262 302 7,200 2,758 Climbing Houston Center
Mon 02:56:10 PM 29.7328 -98.3311 356° North 289 333 10,700 2,709 Climbing Houston Center
Mon 02:58:15 PM 29.9122 -98.3608 352° North 318 366 16,500 2,535 Climbing Houston Center
Mon 02:59:17 PM 30.0142 -98.3772 352° North 343 395 18,600 2,032 Climbing Houston Center
Mon 03:01:21 PM 30.2314 -98.3753 360° North 409 471 22,800 1,871 Climbing Houston Center
Mon 03:02:23 PM 30.3344 -98.3603 North 394 453 24,400 1,548 Climbing Houston Center
Mon 03:04:27 PM 30.5739 -98.3250 North 428 493 27,600 1,255 Climbing Houston Center
Mon 03:06:03 PM 30.7864 -98.2958 North 453 521 29,000 672 Climbing Fort Worth Center
Mon 03:06:32 PM 30.8436 -98.2772 16° North 447 514 29,000  Level Houston Center
Mon 03:07:03 PM 30.9078 -98.2461 23° Northeast 457 526 29,000  Level Fort Worth Center
Mon 03:09:03 PM 31.1425 -98.1172 25° Northeast 464 534 29,000  Level Fort Worth Center
Mon 03:10:03 PM 31.2575 -98.0550 25° Northeast 458 527 29,000  Level Fort Worth Center
Mon 03:11:42 PM 31.4269 -97.9597 26° Northeast 442 509 29,000 -50 Level Houston Center
Mon 03:12:03 PM 31.4669 -97.9394 23° Northeast 435 501 28,900 -1,776 Descending Fort Worth Center
Mon 03:13:47 PM 31.6569 -97.8336 25° Northeast 409 471 25,300 -2,000 Descending Houston Center
Mon 03:14:03 PM 31.6739 -97.8258 21° North 405 466 24,900 -1,974 Descending Fort Worth Center
Mon 03:15:03 PM 31.7722 -97.7725 25° Northeast 392 451 22,800 -2,082 Descending Fort Worth Center
Mon 03:16:53 PM 31.9486 -97.6717 26° Northeast 372 428 19,000 -1,974 Descending Houston Center
Mon 03:18:57 PM 32.1250 -97.5739 25° Northeast 348 400 15,100 -1,926 Descending Houston Center
Mon 03:20:03 PM 32.2236 -97.5164 26° Northeast 337 388 12,900 -1,571 Descending Fort Worth Center
Mon 03:21:03 PM 32.2989 -97.4675 29° Northeast 319 367 11,800 -1,400 Descending Fort Worth Center
Mon 03:23:03 PM 32.3783 -97.3125 59° Northeast 278 320 8,700 -1,467 Descending Fort Worth Center
Mon 03:24:03 PM 32.3886 -97.2192 83° East 278 320 7,400 -1,450 Descending Fort Worth Center
Mon 03:25:03 PM 32.3967 -97.1256 84° East 284 327 5,800 -1,450 Descending Fort Worth Center
Mon 03:26:03 PM 32.4069 -97.0442 81° East 279 321 4,500 -900 Descending Fort Worth Center
Mon 03:27:03 PM 32.4192 -96.9531 81° East 267 307 4,000 -250 Descending Fort Worth Center
Mon 03:28:03 PM 32.4294 -96.8792 81° East 248 285 4,000 -293 Level Fort Worth Center
Mon 03:30:28 PM 32.5667 -96.8000 26° Northeast 253 291 3,000 -350 Descending Dallas / Fort Worth TRACON
Mon 03:34:03 PM 32.7839 -96.7858 North 191 220 1,900 -460 Descending Fort Worth Center
Mon 03:35:28 PM 32.8333 -96.8333 321° Northwest 136 157 700 -847 Descending Dallas / Fort Worth TRACON

Login

Don't have an account? Register now (free) for customized features, flight alerts, and more!